Time,TemperatureF,DewpointF,PressureIn,WindDirection,WindDirectionDegrees,WindSpeedMPH,WindSpeedGustMPH,Humidity,HourlyPrecipIn,Conditions,Clouds,dailyrainin,SoftwareType,DateUTC
2013-01-23 00:04:00,51.2,24.5,30.16,ENE,65,2.0,4.0,35,0.00,,---,0.00,VWS V14.00,2013-01-23 07:04:00,
2013-01-23 00:09:00,50.9,24.2,30.16,ENE,71,0.0,6.0,35,0.00,,---,0.00,VWS V14.00,2013-01-23 07:09:00,
2013-01-23 00:14:00,50.6,24.6,30.16,ENE,72,3.0,6.0,36,0.00,,---,0.00,VWS V14.00,2013-01-23 07:14:00,
2013-01-23 00:19:00,50.2,24.3,30.16,ENE,76,3.0,6.0,36,0.00,,---,0.00,VWS V14.00,2013-01-23 07:19:00,
2013-01-23 00:24:00,49.8,24.6,30.15,East,82,3.0,6.0,37,0.00,,---,0.00,VWS V14.00,2013-01-23 07:24:00,
2013-01-23 00:29:00,49.7,24.5,30.15,East,83,4.0,6.0,37,0.00,,---,0.00,VWS V14.00,2013-01-23 07:29:00,
2013-01-23 00:34:00,49.5,24.3,30.15,East,83,2.0,4.0,37,0.00,,---,0.00,VWS V14.00,2013-01-23 07:34:00,
2013-01-23 00:39:00,48.1,23.1,30.15,East,83,0.0,4.0,37,0.00,,---,0.00,VWS V14.00,2013-01-23 07:39:00,
2013-01-23 00:44:00,46.6,23.0,30.16,East,83,0.0,4.0,39,0.00,,---,0.00,VWS V14.00,2013-01-23 07:44:00,
2013-01-23 00:49:00,47.0,24.0,30.16,East,83,0.0,4.0,40,0.00,,---,0.00,VWS V14.00,2013-01-23 07:49:00,
2013-01-23 00:54:00,47.4,23.7,30.16,East,83,0.0,4.0,39,0.00,,---,0.00,VWS V14.00,2013-01-23 07:54:00,
2013-01-23 00:59:00,47.1,22.8,30.16,East,83,0.0,4.0,38,0.00,,---,0.00,VWS V14.00,2013-01-23 07:59:00,
2013-01-23 01:04:00,45.9,22.4,30.16,East,83,0.0,0.0,39,0.00,,---,0.00,VWS V14.00,2013-01-23 08:04:00,
2013-01-23 01:09:00,44.7,23.0,30.16,East,83,0.0,0.0,42,0.00,,---,0.00,VWS V14.00,2013-01-23 08:09:00,
2013-01-23 01:14:00,43.7,21.6,30.16,East,83,0.0,0.0,41,0.00,,---,0.00,VWS V14.00,2013-01-23 08:14:00,
2013-01-23 01:19:00,42.1,21.2,30.16,East,83,0.0,0.0,43,0.00,,---,0.00,VWS V14.00,2013-01-23 08:19:00,
2013-01-23 01:24:00,41.9,22.1,30.16,East,83,0.0,0.0,45,0.00,,---,0.00,VWS V14.00,2013-01-23 08:24:00,
2013-01-23 01:29:00,43.1,22.1,30.16,East,83,0.0,0.0,43,0.00,,---,0.00,VWS V14.00,2013-01-23 08:29:00,
2013-01-23 01:34:00,43.0,22.0,30.16,East,83,0.0,0.0,43,0.00,,---,0.00,VWS V14.00,2013-01-23 08:34:00,
2013-01-23 01:39:00,43.5,23.0,30.17,East,83,2.0,3.0,44,0.00,,---,0.00,VWS V14.00,2013-01-23 08:39:00,
2013-01-23 01:44:00,44.8,23.7,30.17,East,83,2.0,3.0,43,0.00,,---,0.00,VWS V14.00,2013-01-23 08:44:00,
2013-01-23 01:49:00,46.1,23.7,30.17,East,83,1.0,3.0,41,0.00,,---,0.00,VWS V14.00,2013-01-23 08:49:00,
2013-01-23 01:54:00,47.1,24.0,30.17,East,83,0.0,3.0,40,0.00,,---,0.00,VWS V14.00,2013-01-23 08:54:00,
2013-01-23 02:00:00,47.2,23.5,30.17,East,83,0.0,3.0,39,0.00,,---,0.00,VWS V14.00,2013-01-23 09:00:00,
2013-01-23 02:05:00,46.8,23.2,30.17,East,83,0.0,0.0,39,0.00,,---,0.00,VWS V14.00,2013-01-23 09:05:00,
2013-01-23 02:10:00,48.1,24.3,30.17,East,83,0.0,0.0,39,0.00,,---,0.00,VWS V14.00,2013-01-23 09:10:00,
2013-01-23 02:15:00,49.2,24.7,30.17,East,83,0.0,0.0,38,0.00,,---,0.00,VWS V14.00,2013-01-23 09:15:00,
2013-01-23 02:20:00,49.6,24.4,30.17,East,84,3.0,4.0,37,0.00,,---,0.00,VWS V14.00,2013-01-23 09:20:00,
2013-01-23 02:25:00,49.1,24.0,30.17,East,84,0.0,4.0,37,0.00,,---,0.00,VWS V14.00,2013-01-23 09:25:00,
2013-01-23 02:30:00,49.0,23.9,30.17,East,84,0.0,4.0,37,0.00,,---,0.00,VWS V14.00,2013-01-23 09:30:00,
2013-01-23 02:35:00,48.1,23.1,30.17,East,84,0.0,0.0,37,0.00,,---,0.00,VWS V14.00,2013-01-23 09:35:00,
2013-01-23 02:40:00,46.8,23.2,30.17,East,84,0.0,0.0,39,0.00,,---,0.00,VWS V14.00,2013-01-23 09:40:00,
2013-01-23 02:45:00,45.3,23.0,30.17,East,84,0.0,0.0,41,0.00,,---,0.00,VWS V14.00,2013-01-23 09:45:00,
2013-01-23 02:50:00,44.2,22.0,30.17,East,84,0.0,0.0,41,0.00,,---,0.00,VWS V14.00,2013-01-23 09:50:00,
2013-01-23 02:55:00,42.8,21.9,30.17,East,84,0.0,0.0,43,0.00,,---,0.00,VWS V14.00,2013-01-23 09:55:00,
2013-01-23 03:00:00,41.3,21.6,30.17,East,84,0.0,1.0,45,0.00,,---,0.00,VWS V14.00,2013-01-23 10:00:00,
2013-01-23 03:05:00,41.5,21.8,30.17,East,84,0.0,0.0,45,0.00,,---,0.00,VWS V14.00,2013-01-23 10:05:00,
2013-01-23 03:10:00,40.5,21.4,30.17,East,84,0.0,0.0,46,0.00,,---,0.00,VWS V14.00,2013-01-23 10:10:00,
2013-01-23 03:15:00,39.1,21.6,30.18,East,84,0.0,0.0,49,0.00,,---,0.00,VWS V14.00,2013-01-23 10:15:00,
2013-01-23 03:20:00,39.2,22.1,30.18,East,84,0.0,0.0,50,0.00,,---,0.00,VWS V14.00,2013-01-23 10:20:00,
2013-01-23 03:25:00,40.0,21.9,30.17,East,84,0.0,0.0,48,0.00,,---,0.00,VWS V14.00,2013-01-23 10:25:00,
2013-01-23 03:30:00,39.5,21.5,30.17,East,84,0.0,0.0,48,0.00,,---,0.00,VWS V14.00,2013-01-23 10:30:00,
2013-01-23 03:35:00,38.6,22.0,30.17,East,84,0.0,0.0,51,0.00,,---,0.00,VWS V14.00,2013-01-23 10:35:00,
2013-01-23 03:40:00,38.7,22.6,30.17,East,84,0.0,0.0,52,0.00,,---,0.00,VWS V14.00,2013-01-23 10:40:00,
2013-01-23 03:45:00,39.8,23.2,30.17,East,84,0.0,0.0,51,0.00,,---,0.00,VWS V14.00,2013-01-23 10:45:00,
2013-01-23 03:50:00,41.0,23.3,30.18,East,84,0.0,0.0,49,0.00,,---,0.00,VWS V14.00,2013-01-23 10:50:00,
2013-01-23 03:55:00,41.0,22.3,30.17,East,84,0.0,0.0,47,0.00,,---,0.00,VWS V14.00,2013-01-23 10:55:00,
2013-01-23 04:00:00,40.3,22.7,30.17,East,84,0.0,0.0,49,0.00,,---,0.00,VWS V14.00,2013-01-23 11:00:00,
2013-01-23 04:05:00,40.2,23.1,30.17,East,84,0.0,0.0,50,0.00,,---,0.00,VWS V14.00,2013-01-23 11:05:00,
2013-01-23 04:10:00,40.9,23.7,30.17,East,84,0.0,0.0,50,0.00,,---,0.00,VWS V14.00,2013-01-23 11:10:00,
2013-01-23 04:15:00,42.1,24.3,30.17,East,84,3.0,4.0,49,0.00,,---,0.00,VWS V14.00,2013-01-23 11:15:00,
2013-01-23 04:20:00,43.5,24.6,30.17,East,84,3.0,4.0,47,0.00,,---,0.00,VWS V14.00,2013-01-23 11:20:00,
2013-01-23 04:25:00,44.6,24.6,30.17,East,84,4.0,4.0,45,0.00,,---,0.00,VWS V14.00,2013-01-23 11:25:00,
2013-01-23 04:30:00,45.3,24.1,30.17,East,84,0.0,4.0,43,0.00,,---,0.00,VWS V14.00,2013-01-23 11:30:00,
2013-01-23 04:35:00,45.5,24.9,30.17,East,84,0.0,0.0,44,0.00,,---,0.00,VWS V14.00,2013-01-23 11:35:00,
2013-01-23 04:40:00,45.7,24.5,30.17,East,84,0.0,0.0,43,0.00,,---,0.00,VWS V14.00,2013-01-23 11:40:00,
2013-01-23 04:45:00,46.2,25.0,30.17,East,84,0.0,0.0,43,0.00,,---,0.00,VWS V14.00,2013-01-23 11:45:00,
2013-01-23 04:50:00,47.1,25.2,30.16,East,84,3.0,3.0,42,0.00,,---,0.00,VWS V14.00,2013-01-23 11:50:00,
2013-01-23 04:55:00,47.6,25.7,30.16,East,84,4.0,4.0,42,0.00,,---,0.00,VWS V14.00,2013-01-23 11:55:00,
2013-01-23 05:00:00,48.0,25.4,30.16,East,84,0.0,4.0,41,0.00,,---,0.00,VWS V14.00,2013-01-23 12:00:00,
2013-01-23 05:05:00,48.3,25.7,30.16,East,84,3.0,3.0,41,0.00,,---,0.00,VWS V14.00,2013-01-23 12:05:00,
2013-01-23 05:10:00,48.8,25.6,30.16,East,84,0.0,4.0,40,0.00,,---,0.00,VWS V14.00,2013-01-23 12:10:00,
2013-01-23 05:15:00,49.1,25.8,30.16,East,84,0.0,4.0,40,0.00,,---,0.00,VWS V14.00,2013-01-23 12:15:00,
2013-01-23 05:20:00,49.7,25.8,30.16,East,84,0.0,4.0,39,0.00,,---,0.00,VWS V14.00,2013-01-23 12:20:00,
2013-01-23 05:25:00,50.2,25.6,30.16,East,84,0.0,4.0,38,0.00,,---,0.00,VWS V14.00,2013-01-23 12:25:00,
2013-01-23 05:30:00,50.3,25.7,30.16,East,84,0.0,4.0,38,0.00,,---,0.00,VWS V14.00,2013-01-23 12:30:00,
2013-01-23 05:35:00,50.3,25.0,30.16,East,84,0.0,0.0,37,0.00,,---,0.00,VWS V14.00,2013-01-23 12:35:00,
2013-01-23 05:40:00,50.0,25.4,30.16,East,84,0.0,0.0,38,0.00,,---,0.00,VWS V14.00,2013-01-23 12:40:00,
2013-01-23 05:45:00,49.5,25.0,30.16,East,84,0.0,0.0,38,0.00,,---,0.00,VWS V14.00,2013-01-23 12:45:00,
2013-01-23 05:50:00,48.5,24.7,30.16,East,84,0.0,0.0,39,0.00,,---,0.00,VWS V14.00,2013-01-23 12:50:00,
2013-01-23 05:56:00,48.1,24.9,30.16,East,84,0.0,0.0,40,0.00,,---,0.00,VWS V14.00,2013-01-23 12:56:00,
2013-01-23 06:00:00,47.8,24.7,30.16,East,84,0.0,0.0,40,0.00,,---,0.00,VWS V14.00,2013-01-23 13:00:00,
2013-01-23 06:06:00,47.9,25.4,30.16,East,84,1.0,4.0,41,0.00,,---,0.00,VWS V14.00,2013-01-23 13:06:00,
2013-01-23 06:11:00,48.1,24.9,30.16,East,84,3.0,4.0,40,0.00,,---,0.00,VWS V14.00,2013-01-23 13:11:00,
2013-01-23 06:16:00,48.8,25.0,30.17,East,84,0.0,5.0,39,0.00,,---,0.00,VWS V14.00,2013-01-23 13:16:00,
2013-01-23 06:21:00,48.5,24.7,30.17,East,84,2.0,5.0,39,0.00,,---,0.00,VWS V14.00,2013-01-23 13:21:00,
2013-01-23 06:26:00,48.4,24.6,30.17,East,84,0.0,5.0,39,0.00,,---,0.00,VWS V14.00,2013-01-23 13:26:00,
2013-01-23 06:31:00,48.0,24.2,30.17,East,84,0.0,5.0,39,0.00,,---,0.00,VWS V14.00,2013-01-23 13:31:00,
2013-01-23 06:36:00,47.4,24.3,30.17,East,84,0.0,0.0,40,0.00,,---,0.00,VWS V14.00,2013-01-23 13:36:00,
2013-01-23 06:41:00,46.5,24.1,30.17,East,84,0.0,0.0,41,0.00,,---,0.00,VWS V14.00,2013-01-23 13:41:00,
2013-01-23 06:46:00,45.4,23.7,30.17,East,84,0.0,0.0,42,0.00,,---,0.00,VWS V14.00,2013-01-23 13:46:00,
2013-01-23 06:51:00,44.3,23.2,30.17,East,84,0.0,0.0,43,0.00,,---,0.00,VWS V14.00,2013-01-23 13:51:00,
2013-01-23 06:56:00,43.3,22.9,30.17,East,84,0.0,0.0,44,0.00,,---,0.00,VWS V14.00,2013-01-23 13:56:00,
2013-01-23 07:01:00,42.8,23.0,30.17,East,84,0.0,0.0,45,0.00,,---,0.00,VWS V14.00,2013-01-23 14:01:00,
2013-01-23 07:06:00,42.5,22.1,30.17,East,84,0.0,0.0,44,0.00,,---,0.00,VWS V14.00,2013-01-23 14:06:00,
2013-01-23 07:11:00,41.2,21.5,30.17,East,84,0.0,0.0,45,0.00,,---,0.00,VWS V14.00,2013-01-23 14:11:00,
2013-01-23 07:16:00,40.2,21.6,30.17,East,84,0.0,0.0,47,0.00,,---,0.00,VWS V14.00,2013-01-23 14:16:00,
2013-01-23 07:21:00,39.3,22.7,30.17,East,84,2.0,3.0,51,0.00,,---,0.00,VWS V14.00,2013-01-23 14:21:00,
2013-01-23 07:26:00,39.0,22.0,30.17,East,84,0.0,3.0,50,0.00,,---,0.00,VWS V14.00,2013-01-23 14:26:00,
2013-01-23 07:31:00,38.3,22.7,30.17,East,84,0.0,3.0,53,0.00,,---,0.00,VWS V14.00,2013-01-23 14:31:00,
2013-01-23 07:36:00,38.1,22.5,30.18,East,84,0.0,0.0,53,0.00,,---,0.00,VWS V14.00,2013-01-23 14:36:00,
2013-01-23 07:41:00,39.2,24.4,30.18,East,95,4.0,5.0,55,0.00,,---,0.00,VWS V14.00,2013-01-23 14:41:00,
2013-01-23 07:46:00,42.3,24.5,30.18,SW,229,0.0,6.0,49,0.00,,---,0.00,VWS V14.00,2013-01-23 14:46:00,
2013-01-23 07:51:00,42.8,25.0,30.18,SW,228,0.0,6.0,49,0.00,,---,0.00,VWS V14.00,2013-01-23 14:51:00,
2013-01-23 07:56:00,43.2,24.9,30.18,SW,228,0.0,6.0,48,0.00,,---,0.00,VWS V14.00,2013-01-23 14:56:00,
2013-01-23 08:01:00,43.6,25.2,30.18,SW,228,0.0,6.0,48,0.00,,---,0.00,VWS V14.00,2013-01-23 15:01:00,
2013-01-23 08:06:00,43.7,25.8,30.19,SW,228,0.0,0.0,49,0.00,,---,0.00,VWS V14.00,2013-01-23 15:06:00,
2013-01-23 08:11:00,44.2,25.8,30.19,SW,228,0.0,0.0,48,0.00,,---,0.00,VWS V14.00,2013-01-23 15:11:00,
2013-01-23 08:16:00,45.2,26.7,30.19,SW,228,0.0,0.0,48,0.00,,---,0.00,VWS V14.00,2013-01-23 15:16:00,
2013-01-23 08:21:00,46.4,26.8,30.19,SW,228,0.0,0.0,46,0.00,,---,0.00,VWS V14.00,2013-01-23 15:21:00,
2013-01-23 08:26:00,47.3,26.5,30.19,SE,127,5.0,7.0,44,0.00,,---,0.00,VWS V14.00,2013-01-23 15:26:00,
2013-01-23 08:31:00,48.7,26.6,30.20,SE,130,3.0,7.0,42,0.00,,---,0.00,VWS V14.00,2013-01-23 15:31:00,
2013-01-23 08:36:00,50.0,26.6,30.20,SE,146,4.0,10.0,40,0.00,,---,0.00,VWS V14.00,2013-01-23 15:36:00,
2013-01-23 08:41:00,50.9,26.2,30.20,SE,137,6.0,10.0,38,0.00,,---,0.00,VWS V14.00,2013-01-23 15:41:00,
2013-01-23 08:46:00,51.9,27.1,30.20,SE,135,2.0,10.0,38,0.00,,---,0.00,VWS V14.00,2013-01-23 15:46:00,
2013-01-23 08:51:00,53.3,27.0,30.20,ESE,123,3.0,10.0,36,0.00,,---,0.00,VWS V14.00,2013-01-23 15:51:00,
2013-01-23 08:56:00,54.7,26.9,30.21,ESE,121,3.0,10.0,34,0.00,,---,0.00,VWS V14.00,2013-01-23 15:56:00,
2013-01-23 09:01:00,55.7,27.1,30.21,SE,136,4.0,10.0,33,0.00,,---,0.00,VWS V14.00,2013-01-23 16:01:00,
2013-01-23 09:06:00,56.7,27.2,30.21,SE,134,2.0,3.0,32,0.00,,---,0.00,VWS V14.00,2013-01-23 16:06:00,
2013-01-23 09:11:00,57.6,27.2,30.21,SE,134,1.0,5.0,31,0.00,,---,0.00,VWS V14.00,2013-01-23 16:11:00,
2013-01-23 09:16:00,58.3,27.0,30.21,SE,134,0.0,5.0,30,0.00,,---,0.00,VWS V14.00,2013-01-23 16:16:00,
2013-01-23 09:21:00,58.8,27.5,30.21,SE,134,0.0,5.0,30,0.00,,---,0.00,VWS V14.00,2013-01-23 16:21:00,
2013-01-23 09:26:00,59.1,26.9,30.22,SE,134,0.0,5.0,29,0.00,,---,0.00,VWS V14.00,2013-01-23 16:26:00,
2013-01-23 09:31:00,59.2,27.0,30.22,SE,134,0.0,5.0,29,0.00,,---,0.00,VWS V14.00,2013-01-23 16:31:00,
2013-01-23 09:36:00,59.3,27.1,30.22,SE,134,0.0,0.0,29,0.00,,---,0.00,VWS V14.00,2013-01-23 16:36:00,
2013-01-23 09:41:00,59.2,27.0,30.22,South,173,2.0,3.0,29,0.00,,---,0.00,VWS V14.00,2013-01-23 16:41:00,
2013-01-23 09:46:00,58.9,26.7,30.22,South,173,0.0,4.0,29,0.00,,---,0.00,VWS V14.00,2013-01-23 16:46:00,
2013-01-23 09:51:00,58.8,27.5,30.22,South,173,0.0,4.0,30,0.00,,---,0.00,VWS V14.00,2013-01-23 16:51:00,
2013-01-23 09:56:00,59.1,26.9,30.22,South,173,0.0,4.0,29,0.00,,---,0.00,VWS V14.00,2013-01-23 16:56:00,
2013-01-23 10:01:00,59.4,27.2,30.22,South,173,0.0,4.0,29,0.00,,---,0.00,VWS V14.00,2013-01-23 17:01:00,
2013-01-23 10:06:00,59.8,27.5,30.22,South,173,0.0,0.0,29,0.00,,---,0.00,VWS V14.00,2013-01-23 17:06:00,
2013-01-23 10:11:00,60.1,27.8,30.22,South,173,0.0,1.0,29,0.00,,---,0.00,VWS V14.00,2013-01-23 17:11:00,
2013-01-23 10:16:00,60.3,27.1,30.22,South,173,0.0,1.0,28,0.00,,---,0.00,VWS V14.00,2013-01-23 17:16:00,
2013-01-23 10:21:00,60.6,27.3,30.22,South,173,0.0,1.0,28,0.00,,---,0.00,VWS V14.00,2013-01-23 17:21:00,
2013-01-23 10:26:00,61.1,27.8,30.22,South,173,0.0,1.0,28,0.00,,---,0.00,VWS V14.00,2013-01-23 17:26:00,
2013-01-23 10:31:00,61.7,27.4,30.22,South,173,0.0,1.0,27,0.00,,---,0.00,VWS V14.00,2013-01-23 17:31:00,
2013-01-23 10:36:00,62.4,27.1,30.22,South,173,0.0,0.0,26,0.00,,---,0.00,VWS V14.00,2013-01-23 17:36:00,
2013-01-23 10:41:00,62.9,27.5,30.22,South,173,0.0,0.0,26,0.00,,---,0.00,VWS V14.00,2013-01-23 17:41:00,
2013-01-23 10:46:00,63.6,28.1,30.22,South,173,0.0,0.0,26,0.00,,---,0.00,VWS V14.00,2013-01-23 17:46:00,
2013-01-23 10:51:00,64.2,27.7,30.22,South,173,0.0,0.0,25,0.00,,---,0.00,VWS V14.00,2013-01-23 17:51:00,
2013-01-23 10:56:00,64.9,28.3,30.22,South,173,0.0,0.0,25,0.00,,---,0.00,VWS V14.00,2013-01-23 17:56:00,
2013-01-23 11:01:00,65.2,28.5,30.22,South,173,0.0,0.0,25,0.00,,---,0.00,VWS V14.00,2013-01-23 18:01:00,
2013-01-23 11:06:00,65.2,28.5,30.22,SSW,205,0.0,5.0,25,0.00,,---,0.00,VWS V14.00,2013-01-23 18:06:00,
2013-01-23 11:11:00,65.4,28.7,30.21,SSW,205,1.0,5.0,25,0.00,,---,0.00,VWS V14.00,2013-01-23 18:11:00,
2013-01-23 11:16:00,65.3,28.6,30.21,South,171,4.0,5.0,25,0.00,,---,0.00,VWS V14.00,2013-01-23 18:16:00,
2013-01-23 11:21:00,65.4,28.7,30.21,South,169,0.0,5.0,25,0.00,,---,0.00,VWS V14.00,2013-01-23 18:21:00,
2013-01-23 11:26:00,65.6,28.9,30.21,South,169,2.0,5.0,25,0.00,,---,0.00,VWS V14.00,2013-01-23 18:26:00,
2013-01-23 11:31:00,66.2,29.4,30.20,SSE,168,1.0,5.0,25,0.00,,---,0.00,VWS V14.00,2013-01-23 18:31:00,
2013-01-23 11:36:00,66.6,28.7,30.20,SSE,168,0.0,1.0,24,0.00,,---,0.00,VWS V14.00,2013-01-23 18:36:00,
2013-01-23 11:41:00,66.8,28.9,30.19,SSE,168,0.0,2.0,24,0.00,,---,0.00,VWS V14.00,2013-01-23 18:41:00,
2013-01-23 11:46:00,67.1,29.1,30.19,SSE,168,0.0,2.0,24,0.00,,---,0.00,VWS V14.00,2013-01-23 18:46:00,
2013-01-23 11:51:00,67.5,29.5,30.18,SSE,168,0.0,2.0,24,0.00,,---,0.00,VWS V14.00,2013-01-23 18:51:00,
2013-01-23 11:56:00,68.0,28.9,30.18,NNW,347,3.0,5.0,23,0.00,,---,0.00,VWS V14.00,2013-01-23 18:56:00,
2013-01-23 12:01:00,68.2,29.0,30.18,WNW,303,1.0,1.0,23,0.00,,---,0.00,VWS V14.00,2013-01-23 19:01:00,
2013-01-23 12:06:00,68.1,28.9,30.18,NW,321,0.0,4.0,23,0.00,,---,0.00,VWS V14.00,2013-01-23 19:06:00,
2013-01-23 12:11:00,68.4,29.2,30.17,East,91,2.0,5.0,23,0.00,,---,0.00,VWS V14.00,2013-01-23 19:11:00,
2013-01-23 12:16:00,69.2,29.9,30.17,East,92,0.0,6.0,23,0.00,,---,0.00,VWS V14.00,2013-01-23 19:16:00,
2013-01-23 12:21:00,69.9,30.5,30.17,ENE,71,3.0,10.0,23,0.00,,---,0.00,VWS V14.00,2013-01-23 19:21:00,
2013-01-23 12:26:00,70.0,29.4,30.16,ENE,69,4.0,10.0,22,0.00,,---,0.00,VWS V14.00,2013-01-23 19:26:00,
2013-01-23 12:31:00,70.0,30.5,30.16,NE,53,3.0,3.0,23,0.00,,---,0.00,VWS V14.00,2013-01-23 19:31:00,
2013-01-23 12:36:00,70.6,29.9,30.16,SSW,211,8.0,12.0,22,0.00,,---,0.00,VWS V14.00,2013-01-23 19:36:00,
2013-01-23 12:41:00,71.1,30.4,30.15,East,93,3.0,12.0,22,0.00,,---,0.00,VWS V14.00,2013-01-23 19:41:00,
2013-01-23 12:46:00,71.6,29.6,30.16,ESE,116,0.0,12.0,21,0.00,,---,0.00,VWS V14.00,2013-01-23 19:46:00,
2013-01-23 12:51:00,71.5,30.7,30.15,South,173,5.0,12.0,22,0.00,,---,0.00,VWS V14.00,2013-01-23 19:51:00,
2013-01-23 12:56:00,71.0,30.3,30.15,SE,142,7.0,12.0,22,0.00,,---,0.00,VWS V14.00,2013-01-23 19:56:00,
2013-01-23 13:01:00,70.7,31.1,30.15,SSW,200,5.0,9.0,23,0.00,,---,0.00,VWS V14.00,2013-01-23 20:01:00,
2013-01-23 13:06:00,71.0,31.4,30.14,SSE,152,9.0,13.0,23,0.00,,---,0.00,VWS V14.00,2013-01-23 20:06:00,
2013-01-23 13:12:00,71.2,31.5,30.14,SSE,158,3.0,14.0,23,0.00,,---,0.00,VWS V14.00,2013-01-23 20:12:00,
2013-01-23 13:17:00,71.1,31.5,30.14,South,186,3.0,14.0,23,0.00,,---,0.00,VWS V14.00,2013-01-23 20:17:00,
2013-01-23 13:22:00,70.6,31.0,30.14,ESE,123,4.0,14.0,23,0.00,,---,0.00,VWS V14.00,2013-01-23 20:22:00,
2013-01-23 13:27:00,69.9,30.5,30.14,South,183,3.0,14.0,23,0.00,,---,0.00,VWS V14.00,2013-01-23 20:27:00,
2013-01-23 13:32:00,70.0,30.5,30.14,SE,146,1.0,4.0,23,0.00,,---,0.00,VWS V14.00,2013-01-23 20:32:00,
2013-01-23 13:37:00,70.1,30.6,30.14,SE,141,0.0,11.0,23,0.00,,---,0.00,VWS V14.00,2013-01-23 20:37:00,
2013-01-23 13:42:00,70.0,30.5,30.13,SSE,155,5.0,13.0,23,0.00,,---,0.00,VWS V14.00,2013-01-23 20:42:00,
2013-01-23 13:47:00,69.1,30.8,30.13,SE,145,4.0,13.0,24,0.00,,---,0.00,VWS V14.00,2013-01-23 20:47:00,
2013-01-23 13:52:00,68.8,30.6,30.12,SE,135,5.0,13.0,24,0.00,,---,0.00,VWS V14.00,2013-01-23 20:52:00,
2013-01-23 13:57:00,68.8,30.6,30.12,SE,138,0.0,13.0,24,0.00,,---,0.00,VWS V14.00,2013-01-23 20:57:00,
2013-01-23 14:02:00,69.3,31.0,30.13,SSE,150,10.0,10.0,24,0.00,,---,0.00,VWS V14.00,2013-01-23 21:02:00,
2013-01-23 14:07:00,69.8,31.4,30.12,SE,130,6.0,10.0,24,0.00,,---,0.00,VWS V14.00,2013-01-23 21:07:00,
2013-01-23 14:12:00,70.2,30.7,30.11,South,182,8.0,10.0,23,0.00,,---,0.00,VWS V14.00,2013-01-23 21:12:00,
2013-01-23 14:17:00,70.6,31.0,30.11,ESE,119,6.0,10.0,23,0.00,,---,0.00,VWS V14.00,2013-01-23 21:17:00,
2013-01-23 14:22:00,70.9,31.3,30.11,SE,136,5.0,12.0,23,0.00,,---,0.00,VWS V14.00,2013-01-23 21:22:00,
2013-01-23 14:27:00,70.9,31.3,30.11,East,92,6.0,12.0,23,0.00,,---,0.00,VWS V14.00,2013-01-23 21:27:00,
2013-01-23 14:32:00,70.6,29.9,30.11,South,181,3.0,5.0,22,0.00,,---,0.00,VWS V14.00,2013-01-23 21:32:00,
2013-01-23 14:37:00,70.4,28.6,30.11,SSE,155,4.0,9.0,21,0.00,,---,0.00,VWS V14.00,2013-01-23 21:37:00,
2013-01-23 14:42:00,69.9,30.5,30.11,SE,146,0.0,9.0,23,0.00,,---,0.00,VWS V14.00,2013-01-23 21:42:00,
2013-01-23 14:47:00,69.0,29.7,30.12,SE,146,4.0,11.0,23,0.00,,---,0.00,VWS V14.00,2013-01-23 21:47:00,
2013-01-23 14:52:00,68.7,29.4,30.12,SSE,157,0.0,11.0,23,0.00,,---,0.00,VWS V14.00,2013-01-23 21:52:00,
2013-01-23 14:57:00,68.6,29.4,30.12,ESE,123,3.0,11.0,23,0.00,,---,0.00,VWS V14.00,2013-01-23 21:57:00,
2013-01-23 15:02:00,68.4,29.2,30.12,SE,129,0.0,0.0,23,0.00,,---,0.00,VWS V14.00,2013-01-23 22:02:00,
2013-01-23 15:07:00,68.3,28.0,30.12,SSE,153,3.0,5.0,22,0.00,,---,0.00,VWS V14.00,2013-01-23 22:07:00,
2013-01-23 15:12:00,68.1,28.9,30.12,SE,144,0.0,5.0,23,0.00,,---,0.00,VWS V14.00,2013-01-23 22:12:00,
2013-01-23 15:17:00,68.0,28.9,30.12,SE,140,2.0,5.0,23,0.00,,---,0.00,VWS V14.00,2013-01-23 22:17:00,
2013-01-23 15:22:00,68.0,28.9,30.12,SE,139,0.0,5.0,23,0.00,,---,0.00,VWS V14.00,2013-01-23 22:22:00,
2013-01-23 15:27:00,68.1,28.9,30.12,SE,145,0.0,5.0,23,0.00,,---,0.00,VWS V14.00,2013-01-23 22:27:00,
2013-01-23 15:32:00,68.2,29.0,30.12,SSE,147,0.0,0.0,23,0.00,,---,0.00,VWS V14.00,2013-01-23 22:32:00,
2013-01-23 15:37:00,68.4,29.2,30.12,ESE,103,2.0,11.0,23,0.00,,---,0.00,VWS V14.00,2013-01-23 22:37:00,
2013-01-23 15:42:00,68.5,29.3,30.12,East,94,0.0,11.0,23,0.00,,---,0.00,VWS V14.00,2013-01-23 22:42:00,
2013-01-23 15:47:00,69.1,29.8,30.12,East,94,0.0,11.0,23,0.00,,---,0.00,VWS V14.00,2013-01-23 22:47:00,
2013-01-23 15:52:00,69.8,30.4,30.12,SE,136,2.0,11.0,23,0.00,,---,0.00,VWS V14.00,2013-01-23 22:52:00,
2013-01-23 15:57:00,70.4,29.8,30.12,East,83,0.0,11.0,22,0.00,,---,0.00,VWS V14.00,2013-01-23 22:57:00,
2013-01-23 16:02:00,70.3,29.7,30.12,ESE,122,2.0,5.0,22,0.00,,---,0.00,VWS V14.00,2013-01-23 23:02:00,
2013-01-23 16:07:00,69.7,29.2,30.12,East,89,0.0,5.0,22,0.00,,---,0.00,VWS V14.00,2013-01-23 23:07:00,
2013-01-23 16:12:00,69.3,28.9,30.12,ENE,78,0.0,5.0,22,0.00,,---,0.00,VWS V14.00,2013-01-23 23:12:00,
2013-01-23 16:17:00,69.5,30.1,30.11,SSE,163,0.0,6.0,23,0.00,,---,0.00,VWS V14.00,2013-01-23 23:17:00,
2013-01-23 16:22:00,69.6,30.2,30.11,SE,143,3.0,8.0,23,0.00,,---,0.00,VWS V14.00,2013-01-23 23:22:00,
2013-01-23 16:27:00,69.5,30.1,30.11,SE,145,1.0,8.0,23,0.00,,---,0.00,VWS V14.00,2013-01-23 23:27:00,
2013-01-23 16:32:00,69.5,30.1,30.11,SE,145,0.0,0.0,23,0.00,,---,0.00,VWS V14.00,2013-01-23 23:32:00,
2013-01-23 16:37:00,69.5,30.1,30.11,SE,145,0.0,3.0,23,0.00,,---,0.00,VWS V14.00,2013-01-23 23:37:00,
2013-01-23 16:42:00,69.0,29.7,30.11,SE,145,0.0,5.0,23,0.00,,---,0.00,VWS V14.00,2013-01-23 23:42:00,
2013-01-23 16:47:00,68.8,29.5,30.11,SE,145,0.0,5.0,23,0.00,,---,0.00,VWS V14.00,2013-01-23 23:47:00,
2013-01-23 16:52:00,68.6,29.4,30.11,SE,145,0.0,5.0,23,0.00,,---,0.00,VWS V14.00,2013-01-23 23:52:00,
2013-01-23 16:57:00,68.0,28.9,30.11,SE,145,0.0,5.0,23,0.00,,---,0.00,VWS V14.00,2013-01-23 23:57:00,
2013-01-23 17:02:00,67.4,29.4,30.11,SE,145,0.0,0.0,24,0.00,,---,0.00,VWS V14.00,2013-01-24 00:02:00,
2013-01-23 17:07:00,66.8,28.9,30.11,SE,145,0.0,0.0,24,0.00,,---,0.00,VWS V14.00,2013-01-24 00:07:00,
2013-01-23 17:12:00,66.1,29.3,30.11,SE,145,0.0,0.0,25,0.00,,---,0.00,VWS V14.00,2013-01-24 00:12:00,
2013-01-23 17:17:00,65.5,29.7,30.12,SE,145,0.0,0.0,26,0.00,,---,0.00,VWS V14.00,2013-01-24 00:17:00,
2013-01-23 17:22:00,64.8,29.1,30.12,SE,145,0.0,0.0,26,0.00,,---,0.00,VWS V14.00,2013-01-24 00:22:00,
2013-01-23 17:27:00,64.3,28.7,30.11,SE,145,0.0,0.0,26,0.00,,---,0.00,VWS V14.00,2013-01-24 00:27:00,
2013-01-23 17:32:00,63.6,29.0,30.12,SE,145,0.0,0.0,27,0.00,,---,0.00,VWS V14.00,2013-01-24 00:32:00,
2013-01-23 17:37:00,63.0,29.4,30.12,SE,145,0.0,0.0,28,0.00,,---,0.00,VWS V14.00,2013-01-24 00:37:00,
2013-01-23 17:42:00,62.4,28.0,30.12,SE,145,0.0,0.0,27,0.00,,---,0.00,VWS V14.00,2013-01-24 00:42:00,
2013-01-23 17:47:00,61.3,27.9,30.12,SE,145,0.0,0.0,28,0.00,,---,0.00,VWS V14.00,2013-01-24 00:47:00,
2013-01-23 17:52:00,60.1,27.8,30.12,SE,145,0.0,0.0,29,0.00,,---,0.00,VWS V14.00,2013-01-24 00:52:00,
2013-01-23 17:57:00,59.0,27.6,30.12,SE,145,0.0,0.0,30,0.00,,---,0.00,VWS V14.00,2013-01-24 00:57:00,
2013-01-23 18:02:00,58.2,28.5,30.12,SE,145,0.0,0.0,32,0.00,,---,0.00,VWS V14.00,2013-01-24 01:02:00,
2013-01-23 18:07:00,57.3,28.5,30.12,SE,145,0.0,0.0,33,0.00,,---,0.00,VWS V14.00,2013-01-24 01:07:00,
2013-01-23 18:12:00,56.5,28.5,30.12,SE,144,0.0,0.0,34,0.00,,---,0.00,VWS V14.00,2013-01-24 01:12:00,
2013-01-23 18:17:00,55.8,27.9,30.13,SE,144,0.0,0.0,34,0.00,,---,0.00,VWS V14.00,2013-01-24 01:17:00,
2013-01-23 18:22:00,55.2,28.0,30.13,SE,141,0.0,0.0,35,0.00,,---,0.00,VWS V14.00,2013-01-24 01:22:00,
2013-01-23 18:27:00,55.0,28.6,30.13,SE,138,0.0,0.0,36,0.00,,---,0.00,VWS V14.00,2013-01-24 01:27:00,
2013-01-23 18:32:00,54.9,28.5,30.13,SE,138,0.0,0.0,36,0.00,,---,0.00,VWS V14.00,2013-01-24 01:32:00,
2013-01-23 18:37:00,54.7,28.3,30.13,SE,138,0.0,0.0,36,0.00,,---,0.00,VWS V14.00,2013-01-24 01:37:00,
2013-01-23 18:42:00,54.6,28.2,30.13,SE,138,0.0,0.0,36,0.00,,---,0.00,VWS V14.00,2013-01-24 01:42:00,
2013-01-23 18:47:00,54.5,28.1,30.14,SE,138,0.0,0.0,36,0.00,,---,0.00,VWS V14.00,2013-01-24 01:47:00,
2013-01-23 18:52:00,54.4,28.0,30.14,SE,138,0.0,0.0,36,0.00,,---,0.00,VWS V14.00,2013-01-24 01:52:00,
2013-01-23 18:57:00,54.2,27.9,30.14,SE,138,0.0,0.0,36,0.00,,---,0.00,VWS V14.00,2013-01-24 01:57:00,
2013-01-23 19:02:00,53.9,27.6,30.14,SE,138,0.0,0.0,36,0.00,,---,0.00,VWS V14.00,2013-01-24 02:02:00,
2013-01-23 19:07:00,53.7,28.1,30.14,SE,138,0.0,0.0,37,0.00,,---,0.00,VWS V14.00,2013-01-24 02:07:00,
2013-01-23 19:12:00,53.4,27.8,30.14,SE,138,0.0,0.0,37,0.00,,---,0.00,VWS V14.00,2013-01-24 02:12:00,
2013-01-23 19:18:00,53.3,27.7,30.14,SE,138,0.0,0.0,37,0.00,,---,0.00,VWS V14.00,2013-01-24 02:18:00,
2013-01-23 19:23:00,53.4,27.8,30.14,SE,138,0.0,0.0,37,0.00,,---,0.00,VWS V14.00,2013-01-24 02:23:00,
2013-01-23 19:28:00,53.6,28.6,30.14,SE,138,0.0,0.0,38,0.00,,---,0.00,VWS V14.00,2013-01-24 02:28:00,
2013-01-23 19:33:00,53.7,28.1,30.14,SE,138,0.0,0.0,37,0.00,,---,0.00,VWS V14.00,2013-01-24 02:33:00,
2013-01-23 19:38:00,53.5,27.9,30.14,SE,138,0.0,0.0,37,0.00,,---,0.00,VWS V14.00,2013-01-24 02:38:00,
2013-01-23 19:43:00,53.2,27.6,30.14,SE,138,0.0,0.0,37,0.00,,---,0.00,VWS V14.00,2013-01-24 02:43:00,
2013-01-23 19:48:00,53.0,27.4,30.14,SE,138,0.0,0.0,37,0.00,,---,0.00,VWS V14.00,2013-01-24 02:48:00,
2013-01-23 19:53:00,53.1,28.2,30.13,SE,138,0.0,0.0,38,0.00,,---,0.00,VWS V14.00,2013-01-24 02:53:00,
2013-01-23 19:58:00,53.3,27.7,30.14,SE,138,0.0,0.0,37,0.00,,---,0.00,VWS V14.00,2013-01-24 02:58:00,
2013-01-23 20:03:00,53.6,28.0,30.13,SE,138,0.0,0.0,37,0.00,,---,0.00,VWS V14.00,2013-01-24 03:03:00,
2013-01-23 20:08:00,53.8,28.2,30.14,SE,138,0.0,0.0,37,0.00,,---,0.00,VWS V14.00,2013-01-24 03:08:00,
2013-01-23 20:13:00,53.9,28.2,30.14,SE,138,0.0,0.0,37,0.00,,---,0.00,VWS V14.00,2013-01-24 03:13:00,
2013-01-23 20:18:00,53.9,28.2,30.14,SE,138,0.0,0.0,37,0.00,,---,0.00,VWS V14.00,2013-01-24 03:18:00,
2013-01-23 20:23:00,53.9,28.2,30.14,SE,138,0.0,0.0,37,0.00,,---,0.00,VWS V14.00,2013-01-24 03:23:00,
2013-01-23 20:28:00,53.8,28.2,30.14,SE,138,0.0,0.0,37,0.00,,---,0.00,VWS V14.00,2013-01-24 03:28:00,
2013-01-23 20:33:00,53.7,28.7,30.14,SE,138,0.0,0.0,38,0.00,,---,0.00,VWS V14.00,2013-01-24 03:33:00,
2013-01-23 20:38:00,53.7,28.7,30.14,SE,138,0.0,0.0,38,0.00,,---,0.00,VWS V14.00,2013-01-24 03:38:00,
2013-01-23 20:43:00,53.7,28.7,30.14,SE,138,0.0,0.0,38,0.00,,---,0.00,VWS V14.00,2013-01-24 03:43:00,
2013-01-23 20:48:00,53.7,28.7,30.14,SE,138,0.0,0.0,38,0.00,,---,0.00,VWS V14.00,2013-01-24 03:48:00,
2013-01-23 20:53:00,53.8,28.8,30.14,SE,138,0.0,0.0,38,0.00,,---,0.00,VWS V14.00,2013-01-24 03:53:00,
2013-01-23 20:58:00,53.6,28.6,30.14,SE,138,0.0,0.0,38,0.00,,---,0.00,VWS V14.00,2013-01-24 03:58:00,
2013-01-23 21:03:00,53.5,28.5,30.14,SE,138,0.0,0.0,38,0.00,,---,0.00,VWS V14.00,2013-01-24 04:03:00,
2013-01-23 21:08:00,53.4,28.5,30.14,SE,138,0.0,0.0,38,0.00,,---,0.00,VWS V14.00,2013-01-24 04:08:00,
2013-01-23 21:13:00,53.2,28.3,30.15,SE,138,0.0,0.0,38,0.00,,---,0.00,VWS V14.00,2013-01-24 04:13:00,
2013-01-23 21:18:00,52.8,28.5,30.15,SE,138,0.0,0.0,39,0.00,,---,0.00,VWS V14.00,2013-01-24 04:18:00,
2013-01-23 21:23:00,52.7,28.5,30.15,SE,138,0.0,0.0,39,0.00,,---,0.00,VWS V14.00,2013-01-24 04:23:00,
2013-01-23 21:28:00,52.6,28.4,30.15,SE,138,0.0,0.0,39,0.00,,---,0.00,VWS V14.00,2013-01-24 04:28:00,
2013-01-23 21:33:00,52.6,28.4,30.15,SE,138,0.0,0.0,39,0.00,,---,0.00,VWS V14.00,2013-01-24 04:33:00,
2013-01-23 21:38:00,52.6,28.4,30.15,SE,138,0.0,0.0,39,0.00,,---,0.00,VWS V14.00,2013-01-24 04:38:00,
2013-01-23 21:43:00,52.5,28.3,30.15,SE,138,0.0,0.0,39,0.00,,---,0.00,VWS V14.00,2013-01-24 04:43:00,
2013-01-23 21:48:00,52.4,28.2,30.15,SE,138,0.0,3.0,39,0.00,,---,0.00,VWS V14.00,2013-01-24 04:48:00,
2013-01-23 21:53:00,52.4,28.2,30.15,SE,138,0.0,3.0,39,0.00,,---,0.00,VWS V14.00,2013-01-24 04:53:00,
2013-01-23 21:58:00,52.5,28.3,30.15,SE,138,0.0,3.0,39,0.00,,---,0.00,VWS V14.00,2013-01-24 04:58:00,
2013-01-23 22:00:00,52.6,28.4,30.15,SE,138,0.0,3.0,39,0.00,,---,0.00,VWS V14.00,2013-01-24 05:00:00,
2013-01-23 22:01:00,52.7,28.5,30.15,SE,138,0.0,0.0,39,0.00,,---,0.00,VWS V14.00,2013-01-24 05:01:00,
2013-01-23 22:06:00,52.8,28.5,30.15,SE,138,0.0,0.0,39,0.00,,---,0.00,VWS V14.00,2013-01-24 05:06:00,
2013-01-23 22:11:00,52.8,28.5,30.15,SE,138,0.0,0.0,39,0.00,,---,0.00,VWS V14.00,2013-01-24 05:11:00,
2013-01-23 22:16:00,53.0,28.7,30.15,SE,138,0.0,0.0,39,0.00,,---,0.00,VWS V14.00,2013-01-24 05:16:00,
2013-01-23 22:22:00,53.1,28.8,30.15,SE,138,0.0,0.0,39,0.00,,---,0.00,VWS V14.00,2013-01-24 05:22:00,
2013-01-23 22:27:00,53.3,29.0,30.15,SE,138,0.0,0.0,39,0.00,,---,0.00,VWS V14.00,2013-01-24 05:27:00,
2013-01-23 22:32:00,53.4,29.1,30.15,SE,138,0.0,0.0,39,0.00,,---,0.00,VWS V14.00,2013-01-24 05:32:00,
2013-01-23 22:37:00,53.5,29.2,30.16,SE,138,0.0,0.0,39,0.00,,---,0.00,VWS V14.00,2013-01-24 05:37:00,
2013-01-23 22:42:00,53.6,29.3,30.16,SE,138,0.0,0.0,39,0.00,,---,0.00,VWS V14.00,2013-01-24 05:42:00,
2013-01-23 22:47:00,53.6,29.3,30.15,SE,138,0.0,0.0,39,0.00,,---,0.00,VWS V14.00,2013-01-24 05:47:00,
2013-01-23 22:52:00,53.5,29.2,30.15,SE,138,0.0,0.0,39,0.00,,---,0.00,VWS V14.00,2013-01-24 05:52:00,
2013-01-23 22:57:00,53.3,29.0,30.15,SE,138,0.0,0.0,39,0.00,,---,0.00,VWS V14.00,2013-01-24 05:57:00,
2013-01-23 23:02:00,53.1,28.8,30.15,SE,138,0.0,0.0,39,0.00,,---,0.00,VWS V14.00,2013-01-24 06:02:00,
2013-01-23 23:07:00,53.0,29.3,30.15,SE,138,0.0,0.0,40,0.00,,---,0.00,VWS V14.00,2013-01-24 06:07:00,
2013-01-23 23:12:00,53.1,29.4,30.15,SE,138,0.0,0.0,40,0.00,,---,0.00,VWS V14.00,2013-01-24 06:12:00,
2013-01-23 23:17:00,53.2,29.5,30.15,SE,138,0.0,0.0,40,0.00,,---,0.00,VWS V14.00,2013-01-24 06:17:00,
2013-01-23 23:22:00,53.3,29.6,30.15,SE,138,0.0,0.0,40,0.00,,---,0.00,VWS V14.00,2013-01-24 06:22:00,
2013-01-23 23:27:00,53.4,29.7,30.15,SE,138,0.0,0.0,40,0.00,,---,0.00,VWS V14.00,2013-01-24 06:27:00,
2013-01-23 23:32:00,53.8,30.1,30.16,SE,138,0.0,0.0,40,0.00,,---,0.00,VWS V14.00,2013-01-24 06:32:00,
2013-01-23 23:37:00,54.6,28.9,30.16,South,180,0.0,0.0,37,0.00,,---,0.00,VWS V14.00,2013-01-24 06:37:00,
2013-01-23 23:42:00,54.5,29.4,30.16,South,183,0.0,0.0,38,0.00,,---,0.00,VWS V14.00,2013-01-24 06:42:00,
2013-01-23 23:47:00,54.3,29.2,30.16,South,183,0.0,0.0,38,0.00,,---,0.00,VWS V14.00,2013-01-24 06:47:00,
2013-01-23 23:52:00,53.8,28.8,30.16,South,183,0.0,0.0,38,0.00,,---,0.00,VWS V14.00,2013-01-24 06:52:00,
2013-01-23 23:57:00,52.9,28.0,30.16,South,183,0.0,0.0,38,0.00,,---,0.00,VWS V14.00,2013-01-24 06:57:00,